createdAt,value
2023-05-18T00:00:06.802Z,86.96
2023-05-18T00:02:54.542Z,86.94
2023-05-18T00:05:21.875Z,86.67
2023-05-18T00:07:49.578Z,86.79
2023-05-18T00:10:16.923Z,86.36
2023-05-18T00:12:44.705Z,86.65
2023-05-18T00:15:12.239Z,86.73
2023-05-18T00:17:40.013Z,86.57
2023-05-18T00:20:10.390Z,86.67
2023-05-18T00:22:43.050Z,86.48
2023-05-18T00:25:10.735Z,87.22
2023-05-18T00:27:38.296Z,86.77
2023-05-18T00:30:06.529Z,87.09
2023-05-18T00:32:34.172Z,87.14
2023-05-18T00:35:01.761Z,87.17
2023-05-18T00:37:29.416Z,87.03
2023-05-18T00:39:56.768Z,87.17
2023-05-18T00:42:24.391Z,87.16
2023-05-18T00:44:51.736Z,87.18
2023-05-18T00:47:21.828Z,87.06
2023-05-18T00:49:49.391Z,87.13
2023-05-18T00:52:17.283Z,87.06
2023-05-18T00:54:45.178Z,86.84
2023-05-18T00:57:12.929Z,86.69
2023-05-18T00:59:41.255Z,86.81
2023-05-18T01:02:09.871Z,87.00
2023-05-18T01:04:38.110Z,86.85
2023-05-18T01:07:06.941Z,86.74
2023-05-18T01:09:35.196Z,86.74
2023-05-18T01:12:21.379Z,86.54
2023-05-18T01:15:18.857Z,86.24
2023-05-18T01:18:06.915Z,86.19
2023-05-18T01:21:00.508Z,87.13
2023-05-18T01:23:59.966Z,86.86
2023-05-18T01:26:37.669Z,87.15
2023-05-18T01:29:13.371Z,86.75
2023-05-18T01:31:40.696Z,87.64
2023-05-18T01:34:08.356Z,87.19
2023-05-18T01:36:35.758Z,87.15
2023-05-18T01:39:03.984Z,87.10
2023-05-18T01:41:37.636Z,87.89
2023-05-18T01:44:27.049Z,88.41
2023-05-18T01:46:59.777Z,87.74
2023-05-18T01:49:54.827Z,87.44
2023-05-18T01:52:32.789Z,86.97
2023-05-18T01:55:05.569Z,86.81
2023-05-18T01:57:36.553Z,86.71
2023-05-18T02:00:08.062Z,87.52
2023-05-18T02:02:36.334Z,87.04
2023-05-18T02:05:05.738Z,86.86
2023-05-18T02:07:33.151Z,87.30
2023-05-18T02:10:00.847Z,87.52
2023-05-18T02:12:28.195Z,87.61
2023-05-18T02:14:58.443Z,86.93
2023-05-18T02:17:26.635Z,86.58
2023-05-18T02:19:54.286Z,87.34
2023-05-18T02:22:21.560Z,87.14
2023-05-18T02:24:49.299Z,86.38
2023-05-18T02:27:16.734Z,86.64
2023-05-18T02:29:44.500Z,85.92
2023-05-18T02:32:11.880Z,86.43
2023-05-18T02:34:42.344Z,87.21
2023-05-18T02:37:10.658Z,87.22
2023-05-18T02:39:38.543Z,87.35
2023-05-18T02:42:06.771Z,87.82
2023-05-18T02:44:34.427Z,86.74
2023-05-18T02:47:01.852Z,86.55
2023-05-18T02:49:29.648Z,86.69
2023-05-18T02:51:57.113Z,86.89
2023-05-18T02:54:24.823Z,87.33
2023-05-18T02:56:52.263Z,87.51
2023-05-18T02:59:19.984Z,87.62
2023-05-18T03:01:51.990Z,86.91
2023-05-18T03:04:20.141Z,86.65
2023-05-18T03:06:47.705Z,87.30
2023-05-18T03:09:16.709Z,87.06
2023-05-18T03:11:44.048Z,87.88
2023-05-18T03:14:11.871Z,88.18
2023-05-18T03:16:39.700Z,88.84
2023-05-18T03:19:07.489Z,89.58
2023-05-18T03:21:36.246Z,88.50
2023-05-18T03:24:04.616Z,88.25
2023-05-18T03:26:32.021Z,88.39
2023-05-18T03:28:59.766Z,87.98
2023-05-18T03:31:27.188Z,88.96
2023-05-18T03:33:54.880Z,88.28
2023-05-18T03:36:22.734Z,89.23
2023-05-18T03:38:50.318Z,89.03
2023-05-18T03:41:17.714Z,88.82
2023-05-18T03:43:45.482Z,88.82
2023-05-18T03:46:12.824Z,89.99
2023-05-18T03:48:40.881Z,89.48
2023-05-18T03:51:08.267Z,90.35
2023-05-18T03:53:36.450Z,90.64
2023-05-18T03:56:03.921Z,89.23
2023-05-18T03:58:31.547Z,88.13
2023-05-18T04:01:00.972Z,88.06
2023-05-18T04:03:28.744Z,88.66
2023-05-18T04:05:56.338Z,91.67
2023-05-18T04:08:25.846Z,89.46
2023-05-18T04:10:53.391Z,88.40
2023-05-18T04:13:21.060Z,88.99
2023-05-18T04:15:48.930Z,88.08
2023-05-18T04:18:17.318Z,88.82
2023-05-18T04:20:46.301Z,90.08
2023-05-18T04:23:14.471Z,89.26
2023-05-18T04:25:41.842Z,88.62
2023-05-18T04:28:10.020Z,87.78
2023-05-18T04:30:37.896Z,88.28
2023-05-18T04:33:06.830Z,88.21
2023-05-18T04:35:35.232Z,87.92
2023-05-18T04:38:02.893Z,89.68
2023-05-18T04:40:34.282Z,88.84
2023-05-18T04:43:02.108Z,88.13
2023-05-18T04:45:30.303Z,88.94
2023-05-18T04:47:58.736Z,88.08
2023-05-18T04:50:26.300Z,88.67
2023-05-18T04:52:58.113Z,88.39
2023-05-18T04:55:27.854Z,88.96
2023-05-18T04:57:57.761Z,88.58
2023-05-18T05:00:29.016Z,88.68
2023-05-18T05:02:58.101Z,88.65
2023-05-18T05:05:28.085Z,88.52
2023-05-18T05:07:56.231Z,87.72
2023-05-18T05:10:24.051Z,86.65
2023-05-18T05:12:52.000Z,85.63
2023-05-18T05:15:20.556Z,85.07
2023-05-18T05:17:48.529Z,86.18
2023-05-18T05:20:16.944Z,85.62
2023-05-18T05:22:44.946Z,85.87
2023-05-18T05:25:12.876Z,85.22
2023-05-18T05:27:40.718Z,85.27
2023-05-18T05:30:09.014Z,85.12
2023-05-18T05:32:36.909Z,83.80
2023-05-18T05:35:05.537Z,83.22
2023-05-18T05:37:33.346Z,83.43
2023-05-18T05:40:00.758Z,83.15
2023-05-18T05:42:30.099Z,83.88
2023-05-18T05:44:57.394Z,83.61
2023-05-18T05:47:25.178Z,82.78
2023-05-18T05:49:52.519Z,82.91
2023-05-18T05:52:20.144Z,81.41
2023-05-18T05:54:47.746Z,82.27
2023-05-18T05:57:15.463Z,81.87
2023-05-18T05:59:42.755Z,81.84
2023-05-18T06:02:10.378Z,81.25
2023-05-18T06:04:38.268Z,79.28
2023-05-18T06:07:06.434Z,78.98
2023-05-18T06:09:33.861Z,79.34
2023-05-18T06:12:01.505Z,78.70
2023-05-18T06:14:28.938Z,77.66
2023-05-18T06:16:56.668Z,77.96
2023-05-18T06:19:24.158Z,77.50
2023-05-18T06:21:51.936Z,77.77
2023-05-18T06:24:19.258Z,77.86
2023-05-18T06:26:46.901Z,78.10
2023-05-18T06:29:14.296Z,76.97
2023-05-18T06:31:41.976Z,78.13
2023-05-18T06:34:11.012Z,76.63
2023-05-18T06:36:39.157Z,76.01
2023-05-18T06:39:07.279Z,75.47
2023-05-18T06:41:34.919Z,75.43
2023-05-18T06:44:02.410Z,75.25
2023-05-18T06:46:30.201Z,75.12
2023-05-18T06:48:57.739Z,74.68
2023-05-18T06:51:25.414Z,73.93
2023-05-18T06:53:52.702Z,72.76
2023-05-18T06:56:20.371Z,72.09
2023-05-18T06:58:47.740Z,71.60
2023-05-18T07:01:17.973Z,71.34
2023-05-18T07:03:45.658Z,71.73
2023-05-18T07:06:13.717Z,70.00
2023-05-18T07:08:42.060Z,70.02
2023-05-18T07:11:09.986Z,69.60
2023-05-18T07:13:37.581Z,69.46
2023-05-18T07:16:05.651Z,70.34
2023-05-18T07:18:34.104Z,68.65
2023-05-18T07:21:01.690Z,68.49
2023-05-18T07:23:29.116Z,67.06
2023-05-18T07:25:57.823Z,66.39
2023-05-18T07:28:25.349Z,64.84
2023-05-18T07:30:53.143Z,66.31
2023-05-18T07:33:20.515Z,66.09
2023-05-18T07:35:48.130Z,64.76
2023-05-18T07:38:15.548Z,62.46
2023-05-18T07:40:43.183Z,63.05
2023-05-18T07:43:11.013Z,63.05
2023-05-18T07:45:38.611Z,63.39
2023-05-18T07:48:08.005Z,61.66
2023-05-18T07:50:35.894Z,61.64
2023-05-18T07:53:03.368Z,60.38
2023-05-18T07:55:31.329Z,60.25
2023-05-18T07:58:01.192Z,62.07
2023-05-18T08:00:29.596Z,60.90
2023-05-18T08:02:57.415Z,59.57
2023-05-18T08:05:25.382Z,59.86
2023-05-18T08:07:53.008Z,58.81
2023-05-18T08:10:22.141Z,59.43
2023-05-18T08:12:49.552Z,59.83
2023-05-18T08:15:17.230Z,58.76
2023-05-18T08:17:44.830Z,59.98
2023-05-18T08:20:13.148Z,60.47
2023-05-18T08:22:40.705Z,60.54
2023-05-18T08:25:10.341Z,60.83
2023-05-18T08:27:37.929Z,60.50
2023-05-18T08:30:08.604Z,60.46
2023-05-18T08:32:37.603Z,60.91
2023-05-18T08:35:06.441Z,60.94
2023-05-18T08:37:34.648Z,60.69
2023-05-18T08:40:02.603Z,61.47
2023-05-18T08:42:58.700Z,59.30
2023-05-18T08:45:35.885Z,60.05
2023-05-18T08:48:05.273Z,60.01
2023-05-18T08:50:35.034Z,58.86
2023-05-18T08:53:06.620Z,59.32
2023-05-18T08:55:37.003Z,58.90
2023-05-18T08:58:10.232Z,57.76
2023-05-18T09:00:38.410Z,57.74
2023-05-18T09:03:06.645Z,57.49
2023-05-18T09:05:34.803Z,57.82
2023-05-18T09:08:04.122Z,57.61
2023-05-18T09:10:33.991Z,57.69
2023-05-18T09:13:03.067Z,56.19
2023-05-18T09:15:31.254Z,56.39
2023-05-18T09:17:58.910Z,56.26
2023-05-18T09:20:28.408Z,55.56
2023-05-18T09:22:56.215Z,56.63
2023-05-18T09:25:26.973Z,55.75
2023-05-18T09:27:55.965Z,56.07
2023-05-18T09:30:26.703Z,53.73
2023-05-18T09:32:54.721Z,54.30
2023-05-18T09:35:25.611Z,54.19
2023-05-18T09:37:53.450Z,54.60
2023-05-18T09:40:29.912Z,54.22
2023-05-18T09:42:57.265Z,54.88
2023-05-18T09:45:26.721Z,55.69
2023-05-18T09:47:54.326Z,57.74
2023-05-18T09:50:24.109Z,56.96
2023-05-18T09:52:51.884Z,55.99
2023-05-18T09:55:21.079Z,55.40
2023-05-18T09:57:51.261Z,55.31
2023-05-18T10:00:22.246Z,55.01
2023-05-18T10:02:53.219Z,54.37
2023-05-18T10:05:34.790Z,54.08
2023-05-18T10:08:03.593Z,54.97
2023-05-18T10:10:31.865Z,55.76
2023-05-18T10:12:59.552Z,55.54
2023-05-18T10:15:27.211Z,55.57
2023-05-18T10:17:57.534Z,55.10
2023-05-18T10:20:27.100Z,54.64
2023-05-18T10:22:58.737Z,55.17
2023-05-18T10:25:29.320Z,54.90
2023-05-18T10:28:04.495Z,54.04
2023-05-18T10:30:34.544Z,55.18
2023-05-18T10:33:06.939Z,55.19
2023-05-18T10:35:39.545Z,54.40
2023-05-18T10:38:09.790Z,55.68
2023-05-18T10:40:39.992Z,55.83
2023-05-18T10:43:08.341Z,55.32
2023-05-18T10:45:38.223Z,55.55
2023-05-18T10:48:11.055Z,55.48
2023-05-18T10:50:42.197Z,56.08
2023-05-18T10:53:11.308Z,56.10
2023-05-18T10:55:38.940Z,57.04
2023-05-18T10:58:14.340Z,57.93
2023-05-18T11:00:49.563Z,58.97
2023-05-18T11:03:19.677Z,58.31
2023-05-18T11:06:18.324Z,58.29
2023-05-18T11:08:50.817Z,58.37
2023-05-18T11:11:26.385Z,58.25
2023-05-18T11:13:54.319Z,57.21
2023-05-18T11:16:33.280Z,58.79
2023-05-18T11:19:07.465Z,60.23
2023-05-18T11:21:36.233Z,58.01
2023-05-18T11:24:29.428Z,58.35
2023-05-18T11:27:24.984Z,58.61
2023-05-18T11:30:03.790Z,57.85
2023-05-18T11:32:39.990Z,57.86
2023-05-18T11:35:11.215Z,57.37
2023-05-18T11:37:38.802Z,58.78
2023-05-18T11:40:11.932Z,59.47
2023-05-18T11:42:39.983Z,59.22
2023-05-18T11:45:12.767Z,58.97
2023-05-18T11:47:41.533Z,59.26
2023-05-18T11:50:14.138Z,59.92
2023-05-18T11:52:52.372Z,60.11
2023-05-18T11:55:21.365Z,60.93
2023-05-18T11:57:53.036Z,60.15
2023-05-18T12:00:21.360Z,59.85
2023-05-18T12:02:49.930Z,60.59
2023-05-18T12:05:18.132Z,60.83
2023-05-18T12:07:54.424Z,61.80
2023-05-18T12:10:24.241Z,61.38
2023-05-18T12:12:55.286Z,59.93
2023-05-18T12:15:25.068Z,59.67
2023-05-18T12:17:53.792Z,60.28
2023-05-18T12:20:25.296Z,60.26
2023-05-18T12:22:56.096Z,60.93
2023-05-18T12:25:26.955Z,61.12
2023-05-18T12:27:55.524Z,61.49
2023-05-18T12:30:35.205Z,61.33
2023-05-18T12:33:04.748Z,61.71
2023-05-18T12:35:33.596Z,62.89
2023-05-18T12:38:02.479Z,62.95
2023-05-18T12:40:45.019Z,63.57
2023-05-18T12:43:13.491Z,63.42
2023-05-18T12:45:43.873Z,64.17
2023-05-18T12:48:13.301Z,63.86
2023-05-18T12:50:49.077Z,63.35
2023-05-18T12:53:18.463Z,64.27
2023-05-18T12:55:45.994Z,64.65
2023-05-18T12:58:19.882Z,63.71
2023-05-18T13:00:49.270Z,63.62
2023-05-18T13:03:24.628Z,63.28
2023-05-18T13:06:07.238Z,63.57
2023-05-18T13:08:36.924Z,63.92
2023-05-18T13:11:13.513Z,64.14
2023-05-18T13:14:01.637Z,64.67
2023-05-18T13:16:30.487Z,65.85
2023-05-18T13:19:05.405Z,65.29
2023-05-18T13:21:34.753Z,64.85
2023-05-18T13:24:06.145Z,64.97
2023-05-18T13:26:33.818Z,65.49
2023-05-18T13:29:01.888Z,65.81
2023-05-18T13:31:32.436Z,66.08
2023-05-18T13:34:00.189Z,69.31
2023-05-18T13:36:29.911Z,67.54
2023-05-18T13:38:57.810Z,67.43
2023-05-18T13:41:26.200Z,67.24
2023-05-18T13:43:53.810Z,66.68
2023-05-18T13:46:21.793Z,65.96
2023-05-18T13:48:49.420Z,66.96
2023-05-18T13:51:16.764Z,66.51
2023-05-18T13:53:44.437Z,66.27
2023-05-18T13:56:11.922Z,66.07
2023-05-18T13:58:39.933Z,66.81
2023-05-18T14:01:11.334Z,66.19
2023-05-18T14:03:41.272Z,66.97
2023-05-18T14:06:09.205Z,67.20
2023-05-18T14:08:36.926Z,67.40
2023-05-18T14:11:04.400Z,66.48
2023-05-18T14:13:32.008Z,68.79
2023-05-18T14:15:59.361Z,67.63
2023-05-18T14:18:27.055Z,68.06
2023-05-18T14:20:54.519Z,68.28
2023-05-18T14:23:22.093Z,68.15
2023-05-18T14:25:49.489Z,67.66
2023-05-18T14:28:17.732Z,69.12
2023-05-18T14:30:45.088Z,68.82
2023-05-18T14:33:12.823Z,66.41
2023-05-18T14:35:40.376Z,66.70
2023-05-18T14:38:08.066Z,65.97
2023-05-18T14:40:35.357Z,65.74
2023-05-18T14:43:02.921Z,65.89
2023-05-18T14:45:30.433Z,66.21
2023-05-18T14:47:58.068Z,66.33
2023-05-18T14:50:25.580Z,66.94
2023-05-18T14:52:54.932Z,66.93
2023-05-18T14:55:22.479Z,67.74
2023-05-18T14:57:50.158Z,68.86
2023-05-18T15:00:17.731Z,69.09
2023-05-18T15:02:45.576Z,69.56
2023-05-18T15:05:13.015Z,69.47
2023-05-18T15:07:40.762Z,68.89
2023-05-18T15:10:09.226Z,68.84
2023-05-18T15:12:36.824Z,67.91
2023-05-18T15:15:04.447Z,67.15
2023-05-18T15:17:50.764Z,66.00
2023-05-18T15:20:18.090Z,65.30
2023-05-18T15:22:45.690Z,65.33
2023-05-18T15:25:13.078Z,65.44
2023-05-18T15:27:40.695Z,66.07
2023-05-18T15:30:11.790Z,66.20
2023-05-18T15:32:40.148Z,63.05
2023-05-18T15:35:08.110Z,60.64
2023-05-18T15:37:35.827Z,61.51
2023-05-18T15:40:04.105Z,61.81
2023-05-18T15:42:31.713Z,62.69
2023-05-18T15:44:58.997Z,62.97
2023-05-18T15:47:26.576Z,63.72
2023-05-18T15:49:55.627Z,64.07
2023-05-18T15:52:24.683Z,64.68
2023-05-18T15:54:51.947Z,65.51
2023-05-18T15:57:19.774Z,66.19
2023-05-18T15:59:47.128Z,66.74
2023-05-18T16:02:15.642Z,66.45
2023-05-18T16:04:43.262Z,66.62
2023-05-18T16:07:10.952Z,67.57
2023-05-18T16:09:38.312Z,68.01
2023-05-18T16:12:06.646Z,67.96
2023-05-18T16:14:34.048Z,69.32
2023-05-18T16:17:04.297Z,68.87
2023-05-18T16:19:33.365Z,69.36
2023-05-18T16:22:00.984Z,70.44
2023-05-18T16:24:28.279Z,70.71
2023-05-18T16:26:56.630Z,70.75
2023-05-18T16:29:23.986Z,71.53
2023-05-18T16:31:52.093Z,71.63
2023-05-18T16:34:19.637Z,72.39
2023-05-18T16:36:47.292Z,73.24
2023-05-18T16:39:14.751Z,73.75
2023-05-18T16:41:42.378Z,73.98
2023-05-18T16:44:09.687Z,74.47
2023-05-18T16:46:37.305Z,74.37
2023-05-18T16:49:05.130Z,75.82
2023-05-18T16:51:32.816Z,75.26
2023-05-18T16:54:00.146Z,75.20
2023-05-18T16:56:29.920Z,74.79
2023-05-18T16:58:57.222Z,75.12
2023-05-18T17:01:28.549Z,75.89
2023-05-18T17:03:57.469Z,75.33
2023-05-18T17:06:26.140Z,75.36
2023-05-18T17:08:57.978Z,76.25
2023-05-18T17:11:27.809Z,76.05
2023-05-18T17:13:55.747Z,76.17
2023-05-18T17:16:23.680Z,76.52
2023-05-18T17:18:51.062Z,76.63
2023-05-18T17:21:18.690Z,76.48
2023-05-18T17:23:46.309Z,76.57
2023-05-18T17:26:13.946Z,77.38
2023-05-18T17:28:41.302Z,77.17
2023-05-18T17:31:09.144Z,76.75
2023-05-18T17:33:36.424Z,77.20
2023-05-18T17:36:04.651Z,77.95
2023-05-18T17:38:32.109Z,78.33
2023-05-18T17:40:59.850Z,78.76
2023-05-18T17:43:27.221Z,78.71
2023-05-18T17:45:59.974Z,78.86
2023-05-18T17:48:27.358Z,79.06
2023-05-18T17:50:55.568Z,79.11
2023-05-18T17:53:22.904Z,79.42
2023-05-18T17:55:51.198Z,79.59
2023-05-18T17:58:18.463Z,79.85
2023-05-18T18:00:47.015Z,79.83
2023-05-18T18:03:14.669Z,79.98
2023-05-18T18:05:42.494Z,79.95
2023-05-18T18:08:09.822Z,79.40
2023-05-18T18:10:37.462Z,79.42
2023-05-18T18:13:04.896Z,79.38
2023-05-18T18:15:32.856Z,78.95
2023-05-18T18:18:00.324Z,79.32
2023-05-18T18:20:28.135Z,79.49
2023-05-18T18:22:55.444Z,79.94
2023-05-18T18:25:23.069Z,79.90
2023-05-18T18:27:50.766Z,79.83
2023-05-18T18:30:18.389Z,80.09
2023-05-18T18:32:45.750Z,80.51
2023-05-18T18:35:13.547Z,80.99
2023-05-18T18:37:40.941Z,80.74
2023-05-18T18:40:11.539Z,81.06
2023-05-18T18:42:38.858Z,81.37
2023-05-18T18:45:07.282Z,81.45
2023-05-18T18:47:34.764Z,82.05
2023-05-18T18:50:03.535Z,82.07
2023-05-18T18:52:31.150Z,82.48
2023-05-18T18:54:58.893Z,82.32
2023-05-18T18:57:26.340Z,82.60
2023-05-18T18:59:54.203Z,82.49
2023-05-18T19:02:22.649Z,83.06
2023-05-18T19:04:50.624Z,82.88
2023-05-18T19:07:18.237Z,83.07
2023-05-18T19:09:46.046Z,83.15
2023-05-18T19:12:13.436Z,83.17
2023-05-18T19:14:42.207Z,83.37
2023-05-18T19:17:09.915Z,83.34
2023-05-18T19:19:38.124Z,83.06
2023-05-18T19:22:05.832Z,83.16
2023-05-18T19:24:33.756Z,83.13
2023-05-18T19:27:02.024Z,83.32
2023-05-18T19:29:29.745Z,83.04
2023-05-18T19:31:57.555Z,83.55
2023-05-18T19:34:25.705Z,83.54
2023-05-18T19:36:53.172Z,82.70
2023-05-18T19:39:20.875Z,82.41
2023-05-18T19:41:48.239Z,82.17
2023-05-18T19:44:16.261Z,82.13
2023-05-18T19:46:43.917Z,82.06
2023-05-18T19:49:11.639Z,81.49
2023-05-18T19:51:39.050Z,81.24
2023-05-18T19:54:06.701Z,81.31
2023-05-18T19:56:36.470Z,80.75
2023-05-18T19:59:04.291Z,80.86
2023-05-18T20:01:32.499Z,81.21
2023-05-18T20:04:00.593Z,81.25
2023-05-18T20:06:29.563Z,80.97
2023-05-18T20:08:57.478Z,81.03
2023-05-18T20:11:24.974Z,81.50
2023-05-18T20:13:52.653Z,81.16
2023-05-18T20:16:20.520Z,81.45
2023-05-18T20:18:48.246Z,81.69
2023-05-18T20:21:17.832Z,81.25
2023-05-18T20:23:47.405Z,81.95
2023-05-18T20:26:14.742Z,81.97
2023-05-18T20:28:42.489Z,82.56
2023-05-18T20:31:10.665Z,81.57
2023-05-18T20:33:38.604Z,80.74
2023-05-18T20:36:06.847Z,80.50
2023-05-18T20:38:35.189Z,80.95
2023-05-18T20:41:02.476Z,81.08
2023-05-18T20:43:31.893Z,80.96
2023-05-18T20:45:59.339Z,80.67
2023-05-18T20:48:29.026Z,81.55
2023-05-18T20:50:56.406Z,81.22
2023-05-18T20:53:24.148Z,81.06
2023-05-18T20:55:54.210Z,81.36
2023-05-18T20:58:22.417Z,81.51
2023-05-18T21:00:49.728Z,81.58
2023-05-18T21:03:18.487Z,81.86
2023-05-18T21:05:48.059Z,81.86
2023-05-18T21:08:16.554Z,81.84
2023-05-18T21:10:43.869Z,81.47
2023-05-18T21:13:11.886Z,81.55
2023-05-18T21:15:39.209Z,81.30
2023-05-18T21:18:06.998Z,81.69
2023-05-18T21:20:34.589Z,81.32
2023-05-18T21:23:02.430Z,81.47
2023-05-18T21:25:30.403Z,81.56
2023-05-18T21:27:57.964Z,81.83
2023-05-18T21:30:25.352Z,81.65
2023-05-18T21:32:53.419Z,82.29
2023-05-18T21:35:20.878Z,82.45
2023-05-18T21:37:49.699Z,82.94
2023-05-18T21:40:17.603Z,83.20
2023-05-18T21:42:46.030Z,82.99
2023-05-18T21:45:13.825Z,83.31
2023-05-18T21:47:42.174Z,83.33
2023-05-18T21:50:15.684Z,83.92
2023-05-18T21:52:43.480Z,84.33
2023-05-18T21:55:11.508Z,85.01
2023-05-18T21:57:39.182Z,85.49
2023-05-18T22:00:08.137Z,85.45
2023-05-18T22:02:35.762Z,85.69
2023-05-18T22:05:03.167Z,85.69
2023-05-18T22:07:30.892Z,86.07
2023-05-18T22:10:04.537Z,85.88
2023-05-18T22:12:33.406Z,85.50
2023-05-18T22:15:00.870Z,85.52
2023-05-18T22:17:28.676Z,85.97
2023-05-18T22:19:58.109Z,86.10
2023-05-18T22:22:30.356Z,85.36
2023-05-18T22:24:58.373Z,84.95
2023-05-18T22:27:26.048Z,85.20
2023-05-18T22:29:53.352Z,85.44
2023-05-18T22:32:21.671Z,85.61
2023-05-18T22:34:49.148Z,85.65
2023-05-18T22:37:16.721Z,85.58
2023-05-18T22:39:44.794Z,86.11
2023-05-18T22:42:13.578Z,86.37
2023-05-18T22:44:41.412Z,86.38
2023-05-18T22:47:09.550Z,86.57
2023-05-18T22:49:37.223Z,86.57
2023-05-18T22:52:06.843Z,86.83
2023-05-18T22:54:34.502Z,86.97
2023-05-18T22:57:02.186Z,87.55
2023-05-18T22:59:29.498Z,87.57
2023-05-18T23:01:57.118Z,87.37
2023-05-18T23:04:24.580Z,87.42
2023-05-18T23:06:52.247Z,87.90
2023-05-18T23:09:20.107Z,88.01
2023-05-18T23:11:48.670Z,88.39
2023-05-18T23:14:16.114Z,88.48
2023-05-18T23:16:43.931Z,88.83
2023-05-18T23:19:18.436Z,88.86
2023-05-18T23:21:46.675Z,89.19
2023-05-18T23:24:15.426Z,89.23
2023-05-18T23:26:44.322Z,90.17
2023-05-18T23:29:11.972Z,90.14
2023-05-18T23:31:39.798Z,90.17
2023-05-18T23:34:07.506Z,90.47
2023-05-18T23:36:35.757Z,90.62
2023-05-18T23:39:04.203Z,90.77
2023-05-18T23:41:36.160Z,90.76
2023-05-18T23:44:04.496Z,91.04
2023-05-18T23:46:32.472Z,91.27
2023-05-18T23:49:00.342Z,91.54
2023-05-18T23:51:33.527Z,91.26
2023-05-18T23:54:03.219Z,91.22
2023-05-18T23:56:33.309Z,90.98
2023-05-18T23:59:01.849Z,91.52
